Terminal Aerodrome Forecast
Issued by NWS

Home | Current Version | Previous Version | Text Only | Print | Product List | Glossary On
Versions: 1 2 3 4 5 6 7 8 9 10 11 12 13 14 15 16 17 18 19 20
000
FTUS43 KEAX 172300
TAFMKC
TAF
KMKC 172325Z 1800/1824 07005KT P6SM OVC090
     FM180300 08005KT 6SM -SN OVC015
     FM180500 09005KT 1 1/2SM -SN BR OVC006
     FM181100 08006KT 3SM -SN BR OVC007
     FM181600 08007KT 5SM BR OVC010=

USA.gov is the U.S. government's official web portal to all federal, state and local government web resources and services.